ADDS METAR Data INFO
IDs: Format: Raw Decoded Include TAF

Data at: 0056 UTC 21 Oct 2017

KMCN 210053Z AUTO 00000KT 10SM CLR 13/12 A3019 RMK AO2 SLP222 T01330117
KMCN 202353Z 00000KT 10SM CLR 17/10 A3018 RMK AO2 SLP218 T01720100 10278 20167 53003
KMCN 202253Z 06003KT 10SM CLR 22/08 A3017 RMK AO2 SLP213 T02220083
KMCN 202153Z 10005KT 10SM CLR 26/06 A3017 RMK AO2 SLP213 T02610061
KMCN 202053Z COR 00000KT 10SM CLR 27/04 A3017 RMK AO2 SLP214 T02720039 56020
KMCN 201953Z VRB04KT 10SM CLR 27/07 A3018 RMK AO2 SLP217 T02720067
KMCN 201853Z VRB04KT 10SM CLR 27/08 A3019 RMK AO2 SLP222 T02720078
KMCN 201753Z 06006KT 10SM CLR 26/08 A3023 RMK AO2 SLP234 T02610083 10267 20056 58021
KMCN 201653Z VRB06KT 10SM CLR 24/09 A3025 RMK AO2 SLP241 T02440094
KMCN 201553Z VRB03KT 10SM CLR 23/11 A3028 RMK AO2 SLP249 T02280106
KMCN 201453Z 05004KT 10SM CLR 20/11 A3029 RMK AO2 SLP256 T02000106 51009
KMCN 201353Z 27003KT 10SM CLR 14/12 A3029 RMK AO2 SLP255 T01440117
KMCN 201253Z 00000KT 10SM CLR 09/08 A3029 RMK AO2 SLP255 T00940083
KMCN 201153Z 29003KT 10SM CLR 06/06 A3027 RMK AO2 SLP248 T00560056 10089 20056 51011
KMCN 201053Z AUTO 00000KT 10SM CLR 07/06 A3026 RMK AO2 SLP246 T00670061
KMCN 200953Z AUTO 27005KT 10SM CLR 07/07 A3025 RMK AO2 SLP242 T00670067
KMCN 200853Z AUTO 26003KT 10SM CLR 07/07 A3023 RMK AO2 SLP235 T00720072 55003
KMCN 200753Z AUTO 27003KT 10SM CLR 08/07 A3023 RMK AO2 SLP234 T00780072
KMCN 200653Z AUTO 27004KT 10SM CLR 08/08 A3024 RMK AO2 SLP236 T00830078
KMCN 200553Z AUTO 00000KT 10SM CLR 09/08 A3024 RMK AO2 SLP238 T00890083 10167 20089 50000
KMCN 200453Z AUTO 27004KT 10SM CLR 10/09 A3024 RMK AO2 SLP238 T01000094 402670061
KMCN 200353Z AUTO 28004KT 10SM CLR 11/11 A3025 RMK AO2 SLP241 T01110106
KMCN 200253Z AUTO 00000KT 10SM CLR 11/10 A3024 RMK AO2 SLP239 T01110100 53009
KMCN 200153Z AUTO 00000KT 10SM CLR 13/13 A3023 RMK AO2 SLP235 T01330128
KMCN 200053Z AUTO 00000KT 10SM CLR 14/13 A3022 RMK AO2 SLP232 T01390128
KMCN 192353Z 35004KT 10SM CLR 17/13 A3021 RMK AO2 SLP230 T01670133 10267 20167 53005
KMCN 192253Z 01005KT 10SM CLR 21/12 A3020 RMK AO2 SLP224 T02060122
KMCN 192153Z 36007KT 10SM CLR 26/11 A3020 RMK AO2 SLP224 T02560111
KMCN 192053Z VRB04KT 10SM CLR 27/12 A3020 RMK AO2 SLP223 T02670117 56019
KMCN 191953Z 02006KT 10SM CLR 27/12 A3021 RMK AO2 SLP226 T02670117
KMCN 191853Z VRB04KT 10SM CLR 26/12 A3022 RMK AO2 SLP233 T02560122
KMCN 191753Z 04005KT 10SM CLR 25/13 A3025 RMK AO2 SLP243 T02500128 10256 20067 58020
KMCN 191653Z VRB03KT 10SM CLR 23/12 A3029 RMK AO2 SLP254 T02330122
KMCN 191553Z 06005KT 10SM CLR 22/12 A3031 RMK AO2 SLP263 T02170122
KMCN 191453Z 05006KT 10SM CLR 19/11 A3031 RMK AO2 SLP263 T01890106 51014
KMCN 191353Z 04004KT 10SM CLR 16/09 A3031 RMK AO2 SLP262 T01560094